sensor_id;sensor_type;location;lat;lon;timestamp;pressure;altitude;pressure_sealevel;temperature;humidity
41306;BME280;27051;50.376;19.152;2023-02-19T00:01:39;97834.36;;;8.44;67.01
41306;BME280;27051;50.376;19.152;2023-02-19T00:04:10;97842.45;;;8.39;67.03
41306;BME280;27051;50.376;19.152;2023-02-19T00:06:36;97840.88;;;8.40;67.08
41306;BME280;27051;50.376;19.152;2023-02-19T00:09:04;97844.02;;;8.40;67.03
41306;BME280;27051;50.376;19.152;2023-02-19T00:11:33;97842.68;;;8.43;67.09
41306;BME280;27051;50.376;19.152;2023-02-19T00:14:01;97847.66;;;8.46;67.15
41306;BME280;27051;50.376;19.152;2023-02-19T00:16:32;97846.71;;;8.49;66.93
41306;BME280;27051;50.376;19.152;2023-02-19T00:19:00;97845.48;;;8.48;66.75
41306;BME280;27051;50.376;19.152;2023-02-19T00:21:28;97840.91;;;8.41;66.65
41306;BME280;27051;50.376;19.152;2023-02-19T00:23:58;97839.84;;;8.43;66.93
41306;BME280;27051;50.376;19.152;2023-02-19T00:26:26;97843.14;;;8.47;66.89
41306;BME280;27051;50.376;19.152;2023-02-19T00:28:54;97839.80;;;8.49;66.88
41306;BME280;27051;50.376;19.152;2023-02-19T00:31:39;97837.16;;;8.53;66.83
41306;BME280;27051;50.376;19.152;2023-02-19T00:34:06;97837.38;;;8.50;66.87
41306;BME280;27051;50.376;19.152;2023-02-19T00:36:35;97833.00;;;8.54;66.93
41306;BME280;27051;50.376;19.152;2023-02-19T00:39:02;97840.40;;;8.53;66.70
41306;BME280;27051;50.376;19.152;2023-02-19T00:41:28;97834.38;;;8.44;66.73
41306;BME280;27051;50.376;19.152;2023-02-19T00:48:53;97835.51;;;8.42;66.55
41306;BME280;27051;50.376;19.152;2023-02-19T00:51:21;97836.82;;;8.38;66.37
41306;BME280;27051;50.376;19.152;2023-02-19T00:53:48;97832.70;;;8.30;66.37
41306;BME280;27051;50.376;19.152;2023-02-19T00:56:14;97832.98;;;8.27;66.33
41306;BME280;27051;50.376;19.152;2023-02-19T00:58:41;97832.00;;;8.23;66.43
41306;BME280;27051;50.376;19.152;2023-02-19T01:01:07;97831.51;;;8.24;66.44
41306;BME280;27051;50.376;19.152;2023-02-19T01:03:35;97827.52;;;8.24;66.37
41306;BME280;27051;50.376;19.152;2023-02-19T01:06:04;97824.17;;;8.26;66.44
41306;BME280;27051;50.376;19.152;2023-02-19T01:08:32;97825.89;;;8.21;66.21
41306;BME280;27051;50.376;19.152;2023-02-19T01:10:59;97813.83;;;8.21;66.48
41306;BME280;27051;50.376;19.152;2023-02-19T01:13:26;97814.90;;;8.21;66.46
41306;BME280;27051;50.376;19.152;2023-02-19T01:16:04;97815.30;;;8.22;66.68
41306;BME280;27051;50.376;19.152;2023-02-19T01:18:31;97813.70;;;8.24;66.85
41306;BME280;27051;50.376;19.152;2023-02-19T01:21:04;97811.23;;;8.26;66.85
41306;BME280;27051;50.376;19.152;2023-02-19T01:23:32;97813.08;;;8.17;66.77
41306;BME280;27051;50.376;19.152;2023-02-19T01:26:07;97815.73;;;8.17;66.91
41306;BME280;27051;50.376;19.152;2023-02-19T01:28:34;97809.80;;;8.16;66.96
41306;BME280;27051;50.376;19.152;2023-02-19T01:31:06;97814.06;;;8.15;67.02
41306;BME280;27051;50.376;19.152;2023-02-19T01:33:34;97807.00;;;8.17;66.92
41306;BME280;27051;50.376;19.152;2023-02-19T01:36:05;97808.71;;;8.11;66.91
41306;BME280;27051;50.376;19.152;2023-02-19T01:38:32;97804.36;;;8.07;67.03
41306;BME280;27051;50.376;19.152;2023-02-19T01:41:01;97805.52;;;8.07;67.12
41306;BME280;27051;50.376;19.152;2023-02-19T01:43:34;97808.71;;;8.01;67.17
41306;BME280;27051;50.376;19.152;2023-02-19T01:46:01;97802.36;;;8.01;67.25
41306;BME280;27051;50.376;19.152;2023-02-19T01:48:34;97800.06;;;7.97;67.31
41306;BME280;27051;50.376;19.152;2023-02-19T01:51:09;97793.55;;;8.03;67.53
41306;BME280;27051;50.376;19.152;2023-02-19T01:53:44;97786.91;;;8.06;67.43
41306;BME280;27051;50.376;19.152;2023-02-19T01:56:15;97783.00;;;8.06;67.49
41306;BME280;27051;50.376;19.152;2023-02-19T01:58:44;97782.16;;;8.13;67.52
41306;BME280;27051;50.376;19.152;2023-02-19T02:01:11;97782.13;;;8.16;67.39
41306;BME280;27051;50.376;19.152;2023-02-19T02:03:41;97780.98;;;8.14;67.40
41306;BME280;27051;50.376;19.152;2023-02-19T02:06:22;97780.95;;;8.15;67.51
41306;BME280;27051;50.376;19.152;2023-02-19T02:08:51;97776.00;;;8.18;67.59
41306;BME280;27051;50.376;19.152;2023-02-19T02:11:19;97773.95;;;8.23;67.60
41306;BME280;27051;50.376;19.152;2023-02-19T02:13:46;97771.41;;;8.25;67.59
41306;BME280;27051;50.376;19.152;2023-02-19T02:16:24;97768.33;;;8.29;67.63
41306;BME280;27051;50.376;19.152;2023-02-19T02:19:18;97770.20;;;8.30;67.57
41306;BME280;27051;50.376;19.152;2023-02-19T02:22:00;97769.61;;;8.26;67.59
41306;BME280;27051;50.376;19.152;2023-02-19T02:34:00;97755.22;;;8.19;67.97
41306;BME280;27051;50.376;19.152;2023-02-19T02:36:01;97750.94;;;8.28;68.02
41306;BME280;27051;50.376;19.152;2023-02-19T02:38:31;97749.66;;;8.33;68.02
41306;BME280;27051;50.376;19.152;2023-02-19T02:40:59;97747.17;;;8.41;68.04
41306;BME280;27051;50.376;19.152;2023-02-19T02:43:26;97745.10;;;8.45;67.94
41306;BME280;27051;50.376;19.152;2023-02-19T02:45:53;97746.54;;;8.47;67.93
41306;BME280;27051;50.376;19.152;2023-02-19T02:48:40;97746.39;;;8.49;67.95
41306;BME280;27051;50.376;19.152;2023-02-19T02:51:22;97743.65;;;8.55;67.94
41306;BME280;27051;50.376;19.152;2023-02-19T02:54:15;97745.05;;;8.61;67.94
41306;BME280;27051;50.376;19.152;2023-02-19T02:56:46;97738.16;;;8.58;67.74
41306;BME280;27051;50.376;19.152;2023-02-19T02:59:19;97738.27;;;8.59;67.95
41306;BME280;27051;50.376;19.152;2023-02-19T03:04:32;97735.27;;;8.54;67.81
41306;BME280;27051;50.376;19.152;2023-02-19T03:07:06;97731.36;;;8.49;67.86
41306;BME280;27051;50.376;19.152;2023-02-19T03:09:40;97730.91;;;8.46;67.94
41306;BME280;27051;50.376;19.152;2023-02-19T03:12:14;97731.16;;;8.50;67.99
41306;BME280;27051;50.376;19.152;2023-02-19T03:14:49;97728.33;;;8.50;67.98
41306;BME280;27051;50.376;19.152;2023-02-19T03:17:50;97721.59;;;8.44;68.00
41306;BME280;27051;50.376;19.152;2023-02-19T03:20:20;97719.83;;;8.44;68.18
41306;BME280;27051;50.376;19.152;2023-02-19T03:22:51;97721.36;;;8.47;68.10
41306;BME280;27051;50.376;19.152;2023-02-19T03:25:22;97724.40;;;8.46;68.16
41306;BME280;27051;50.376;19.152;2023-02-19T03:27:56;97724.80;;;8.46;68.12
41306;BME280;27051;50.376;19.152;2023-02-19T03:30:32;97720.73;;;8.42;68.25
41306;BME280;27051;50.376;19.152;2023-02-19T03:35:36;97719.33;;;8.35;68.09
41306;BME280;27051;50.376;19.152;2023-02-19T03:38:22;97725.35;;;8.29;68.20
41306;BME280;27051;50.376;19.152;2023-02-19T03:41:07;97728.85;;;8.26;68.16
41306;BME280;27051;50.376;19.152;2023-02-19T03:44:29;97731.32;;;8.20;68.39
41306;BME280;27051;50.376;19.152;2023-02-19T03:47:23;97732.19;;;8.12;68.45
41306;BME280;27051;50.376;19.152;2023-02-19T03:50:26;97729.69;;;8.08;68.53
41306;BME280;27051;50.376;19.152;2023-02-19T03:56:53;97719.45;;;8.13;68.62
41306;BME280;27051;50.376;19.152;2023-02-19T03:59:19;97716.34;;;8.13;68.53
41306;BME280;27051;50.376;19.152;2023-02-19T04:02:08;97713.75;;;8.13;68.60
41306;BME280;27051;50.376;19.152;2023-02-19T04:04:42;97709.05;;;8.15;68.37
41306;BME280;27051;50.376;19.152;2023-02-19T04:07:11;97704.80;;;8.16;68.54
41306;BME280;27051;50.376;19.152;2023-02-19T04:09:43;97701.13;;;8.16;68.29
41306;BME280;27051;50.376;19.152;2023-02-19T04:12:13;97700.98;;;8.11;68.33
41306;BME280;27051;50.376;19.152;2023-02-19T04:14:56;97703.78;;;8.15;68.40
41306;BME280;27051;50.376;19.152;2023-02-19T04:17:32;97699.63;;;8.12;68.31
41306;BME280;27051;50.376;19.152;2023-02-19T04:20:11;97701.58;;;8.13;68.27
41306;BME280;27051;50.376;19.152;2023-02-19T04:22:40;97703.05;;;8.04;68.30
41306;BME280;27051;50.376;19.152;2023-02-19T04:25:08;97704.73;;;8.02;68.31
41306;BME280;27051;50.376;19.152;2023-02-19T04:27:39;97702.73;;;7.98;68.32
41306;BME280;27051;50.376;19.152;2023-02-19T04:30:09;97704.09;;;8.01;68.59
41306;BME280;27051;50.376;19.152;2023-02-19T04:32:37;97702.67;;;8.04;68.57
41306;BME280;27051;50.376;19.152;2023-02-19T04:35:06;97702.42;;;8.06;68.47
41306;BME280;27051;50.376;19.152;2023-02-19T04:37:34;97698.67;;;8.07;68.37
41306;BME280;27051;50.376;19.152;2023-02-19T04:40:02;97696.83;;;7.99;68.32
41306;BME280;27051;50.376;19.152;2023-02-19T04:42:30;97695.02;;;7.98;68.49
41306;BME280;27051;50.376;19.152;2023-02-19T04:44:57;97696.14;;;8.02;68.57
41306;BME280;27051;50.376;19.152;2023-02-19T04:47:24;97695.11;;;8.08;68.58
41306;BME280;27051;50.376;19.152;2023-02-19T04:49:51;97687.96;;;8.11;68.64
41306;BME280;27051;50.376;19.152;2023-02-19T04:52:17;97680.73;;;8.14;68.51
41306;BME280;27051;50.376;19.152;2023-02-19T04:54:43;97669.23;;;8.16;68.54
41306;BME280;27051;50.376;19.152;2023-02-19T04:57:10;97658.91;;;8.20;68.47
41306;BME280;27051;50.376;19.152;2023-02-19T04:59:36;97656.13;;;8.27;68.57
41306;BME280;27051;50.376;19.152;2023-02-19T05:02:02;97653.77;;;8.35;68.62
41306;BME280;27051;50.376;19.152;2023-02-19T05:04:28;97653.18;;;8.42;68.53
41306;BME280;27051;50.376;19.152;2023-02-19T05:06:54;97652.80;;;8.47;68.48
41306;BME280;27051;50.376;19.152;2023-02-19T05:09:21;97646.77;;;8.55;68.54
41306;BME280;27051;50.376;19.152;2023-02-19T05:11:47;97639.39;;;8.59;68.31
41306;BME280;27051;50.376;19.152;2023-02-19T05:14:14;97637.68;;;8.58;68.28
41306;BME280;27051;50.376;19.152;2023-02-19T05:16:41;97636.69;;;8.64;68.34
41306;BME280;27051;50.376;19.152;2023-02-19T05:19:15;97642.36;;;8.66;68.22
41306;BME280;27051;50.376;19.152;2023-02-19T05:21:43;97642.32;;;8.70;68.28
41306;BME280;27051;50.376;19.152;2023-02-19T05:24:10;97642.02;;;8.75;68.34
41306;BME280;27051;50.376;19.152;2023-02-19T05:26:41;97642.28;;;8.79;68.19
41306;BME280;27051;50.376;19.152;2023-02-19T05:29:07;97639.92;;;8.79;68.18
41306;BME280;27051;50.376;19.152;2023-02-19T05:31:34;97645.02;;;8.83;68.29
41306;BME280;27051;50.376;19.152;2023-02-19T05:34:03;97651.63;;;8.86;68.24
41306;BME280;27051;50.376;19.152;2023-02-19T05:36:31;97643.67;;;8.93;68.28
41306;BME280;27051;50.376;19.152;2023-02-19T05:38:58;97637.78;;;9.03;68.39
41306;BME280;27051;50.376;19.152;2023-02-19T05:41:28;97632.95;;;9.09;68.15
41306;BME280;27051;50.376;19.152;2023-02-19T05:44:09;97637.03;;;9.04;67.88
41306;BME280;27051;50.376;19.152;2023-02-19T05:46:37;97641.52;;;8.95;67.92
41306;BME280;27051;50.376;19.152;2023-02-19T05:49:04;97644.12;;;8.95;68.07
41306;BME280;27051;50.376;19.152;2023-02-19T05:51:32;97635.58;;;8.99;68.05
41306;BME280;27051;50.376;19.152;2023-02-19T05:53:59;97623.79;;;9.01;68.08
41306;BME280;27051;50.376;19.152;2023-02-19T05:59:06;97618.86;;;8.95;67.76
41306;BME280;27051;50.376;19.152;2023-02-19T06:01:34;97620.23;;;8.97;68.05
41306;BME280;27051;50.376;19.152;2023-02-19T06:04:01;97621.95;;;9.01;67.98
41306;BME280;27051;50.376;19.152;2023-02-19T06:06:29;97615.38;;;9.02;67.93
41306;BME280;27051;50.376;19.152;2023-02-19T06:08:56;97615.23;;;8.96;67.95
41306;BME280;27051;50.376;19.152;2023-02-19T06:11:24;97612.27;;;8.92;67.69
41306;BME280;27051;50.376;19.152;2023-02-19T06:13:51;97616.33;;;8.84;67.79
41306;BME280;27051;50.376;19.152;2023-02-19T06:16:19;97624.01;;;8.85;67.98
41306;BME280;27051;50.376;19.152;2023-02-19T06:18:48;97628.88;;;8.83;67.91
41306;BME280;27051;50.376;19.152;2023-02-19T06:21:16;97627.87;;;8.83;68.08
41306;BME280;27051;50.376;19.152;2023-02-19T06:23:43;97626.98;;;8.84;68.03
41306;BME280;27051;50.376;19.152;2023-02-19T06:26:15;97632.48;;;8.84;68.04
41306;BME280;27051;50.376;19.152;2023-02-19T06:28:47;97630.67;;;8.77;68.09
41306;BME280;27051;50.376;19.152;2023-02-19T06:31:16;97624.35;;;8.76;68.09
41306;BME280;27051;50.376;19.152;2023-02-19T06:33:43;97617.90;;;8.73;68.12
41306;BME280;27051;50.376;19.152;2023-02-19T06:36:12;97618.38;;;8.68;68.20
41306;BME280;27051;50.376;19.152;2023-02-19T06:38:39;97607.64;;;8.59;68.26
41306;BME280;27051;50.376;19.152;2023-02-19T06:41:07;97610.61;;;8.54;68.43
41306;BME280;27051;50.376;19.152;2023-02-19T06:43:36;97609.55;;;8.57;68.58
41306;BME280;27051;50.376;19.152;2023-02-19T06:46:05;97606.80;;;8.65;68.64
41306;BME280;27051;50.376;19.152;2023-02-19T06:48:34;97608.45;;;8.66;68.39
41306;BME280;27051;50.376;19.152;2023-02-19T06:51:02;97603.98;;;8.70;68.46
41306;BME280;27051;50.376;19.152;2023-02-19T06:53:30;97611.74;;;8.74;68.50
41306;BME280;27051;50.376;19.152;2023-02-19T06:58:46;97600.23;;;8.73;68.51
41306;BME280;27051;50.376;19.152;2023-02-19T07:01:15;97598.80;;;8.71;68.53
41306;BME280;27051;50.376;19.152;2023-02-19T07:03:49;97594.84;;;8.75;68.55
41306;BME280;27051;50.376;19.152;2023-02-19T07:06:20;97595.99;;;8.80;68.65
41306;BME280;27051;50.376;19.152;2023-02-19T07:08:48;97598.31;;;8.80;68.34
41306;BME280;27051;50.376;19.152;2023-02-19T07:11:15;97597.20;;;8.84;68.56
41306;BME280;27051;50.376;19.152;2023-02-19T07:13:44;97597.02;;;8.86;68.66
41306;BME280;27051;50.376;19.152;2023-02-19T07:16:13;97598.23;;;8.88;68.54
41306;BME280;27051;50.376;19.152;2023-02-19T07:18:40;97602.45;;;8.92;68.40
41306;BME280;27051;50.376;19.152;2023-02-19T07:21:10;97603.06;;;8.89;68.50
41306;BME280;27051;50.376;19.152;2023-02-19T07:23:41;97600.45;;;8.91;68.59
41306;BME280;27051;50.376;19.152;2023-02-19T07:26:22;97602.55;;;8.87;68.38
41306;BME280;27051;50.376;19.152;2023-02-19T07:28:50;97599.50;;;8.85;68.52
41306;BME280;27051;50.376;19.152;2023-02-19T07:31:18;97601.14;;;8.85;68.69
41306;BME280;27051;50.376;19.152;2023-02-19T07:33:45;97599.75;;;8.87;68.68
41306;BME280;27051;50.376;19.152;2023-02-19T07:36:13;97597.33;;;8.89;68.81
41306;BME280;27051;50.376;19.152;2023-02-19T07:38:39;97593.77;;;8.93;68.92
41306;BME280;27051;50.376;19.152;2023-02-19T07:41:06;97595.58;;;8.95;68.76
41306;BME280;27051;50.376;19.152;2023-02-19T07:43:38;97593.72;;;8.94;68.81
41306;BME280;27051;50.376;19.152;2023-02-19T07:46:08;97585.24;;;8.95;68.88
41306;BME280;27051;50.376;19.152;2023-02-19T07:48:36;97584.33;;;9.01;68.91
41306;BME280;27051;50.376;19.152;2023-02-19T07:51:06;97583.81;;;9.07;68.89
41306;BME280;27051;50.376;19.152;2023-02-19T07:53:34;97575.32;;;9.04;68.67
41306;BME280;27051;50.376;19.152;2023-02-19T07:56:02;97579.91;;;9.02;68.82
41306;BME280;27051;50.376;19.152;2023-02-19T07:58:29;97576.73;;;9.03;68.97
41306;BME280;27051;50.376;19.152;2023-02-19T08:01:04;97574.96;;;9.08;68.97
41306;BME280;27051;50.376;19.152;2023-02-19T08:03:31;97572.37;;;9.15;68.95
41306;BME280;27051;50.376;19.152;2023-02-19T08:06:00;97573.18;;;9.10;68.66
41306;BME280;27051;50.376;19.152;2023-02-19T08:08:28;97573.00;;;9.06;68.82
41306;BME280;27051;50.376;19.152;2023-02-19T08:10:59;97577.92;;;9.05;68.94
41306;BME280;27051;50.376;19.152;2023-02-19T08:13:26;97579.30;;;9.13;69.07
41306;BME280;27051;50.376;19.152;2023-02-19T08:18:31;97588.30;;;9.14;68.86
41306;BME280;27051;50.376;19.152;2023-02-19T08:20:59;97586.16;;;9.14;68.81
41306;BME280;27051;50.376;19.152;2023-02-19T08:23:27;97586.14;;;9.13;68.92
41306;BME280;27051;50.376;19.152;2023-02-19T08:25:59;97586.81;;;9.13;68.88
41306;BME280;27051;50.376;19.152;2023-02-19T08:28:26;97587.16;;;9.15;68.89
41306;BME280;27051;50.376;19.152;2023-02-19T08:30:52;97589.14;;;9.14;68.89
41306;BME280;27051;50.376;19.152;2023-02-19T08:33:24;97593.79;;;9.10;68.91
41306;BME280;27051;50.376;19.152;2023-02-19T08:35:52;97597.95;;;9.11;69.03
41306;BME280;27051;50.376;19.152;2023-02-19T08:38:19;97602.66;;;9.12;69.02
41306;BME280;27051;50.376;19.152;2023-02-19T08:40:45;97605.73;;;9.18;69.21
41306;BME280;27051;50.376;19.152;2023-02-19T08:43:13;97605.27;;;9.24;69.12
41306;BME280;27051;50.376;19.152;2023-02-19T08:45:42;97600.23;;;9.28;68.99
41306;BME280;27051;50.376;19.152;2023-02-19T08:48:09;97598.83;;;9.29;68.97
41306;BME280;27051;50.376;19.152;2023-02-19T08:50:35;97603.04;;;9.29;68.77
41306;BME280;27051;50.376;19.152;2023-02-19T08:53:03;97598.59;;;9.29;68.78
41306;BME280;27051;50.376;19.152;2023-02-19T08:55:36;97600.81;;;9.29;68.54
41306;BME280;27051;50.376;19.152;2023-02-19T08:58:04;97600.30;;;9.28;68.34
41306;BME280;27051;50.376;19.152;2023-02-19T09:00:34;97602.25;;;9.25;68.33
41306;BME280;27051;50.376;19.152;2023-02-19T09:03:00;97604.65;;;9.32;68.63
41306;BME280;27051;50.376;19.152;2023-02-19T09:05:27;97602.22;;;9.36;68.34
41306;BME280;27051;50.376;19.152;2023-02-19T09:07:53;97607.11;;;9.36;68.11
41306;BME280;27051;50.376;19.152;2023-02-19T09:10:21;97604.14;;;9.36;68.30
41306;BME280;27051;50.376;19.152;2023-02-19T09:12:48;97603.67;;;9.36;68.04
41306;BME280;27051;50.376;19.152;2023-02-19T09:15:14;97605.34;;;9.32;67.90
41306;BME280;27051;50.376;19.152;2023-02-19T09:17:40;97611.56;;;9.28;68.01
41306;BME280;27051;50.376;19.152;2023-02-19T09:20:07;97611.19;;;9.28;68.07
41306;BME280;27051;50.376;19.152;2023-02-19T09:22:34;97613.38;;;9.29;68.20
41306;BME280;27051;50.376;19.152;2023-02-19T09:25:01;97616.80;;;9.34;68.24
41306;BME280;27051;50.376;19.152;2023-02-19T09:27:27;97620.80;;;9.34;68.25
41306;BME280;27051;50.376;19.152;2023-02-19T09:29:53;97622.56;;;9.37;68.09
41306;BME280;27051;50.376;19.152;2023-02-19T09:32:20;97625.00;;;9.40;68.04
41306;BME280;27051;50.376;19.152;2023-02-19T09:34:46;97629.19;;;9.40;67.95
41306;BME280;27051;50.376;19.152;2023-02-19T09:37:12;97637.77;;;9.42;68.08
41306;BME280;27051;50.376;19.152;2023-02-19T09:39:39;97640.15;;;9.36;67.98
41306;BME280;27051;50.376;19.152;2023-02-19T09:42:18;97646.64;;;9.32;67.76
41306;BME280;27051;50.376;19.152;2023-02-19T09:44:49;97653.23;;;9.16;67.19
41306;BME280;27051;50.376;19.152;2023-02-19T09:47:19;97658.55;;;9.06;67.27
41306;BME280;27051;50.376;19.152;2023-02-19T09:49:53;97665.98;;;8.99;67.44
41306;BME280;27051;50.376;19.152;2023-02-19T09:55:14;97682.05;;;8.88;66.42
41306;BME280;27051;50.376;19.152;2023-02-19T09:57:42;97690.88;;;8.73;66.04
41306;BME280;27051;50.376;19.152;2023-02-19T10:00:22;97694.57;;;8.56;66.28
41306;BME280;27051;50.376;19.152;2023-02-19T10:02:56;97700.91;;;8.46;66.24
41306;BME280;27051;50.376;19.152;2023-02-19T10:05:27;97704.77;;;8.40;66.10
41306;BME280;27051;50.376;19.152;2023-02-19T10:07:55;97714.70;;;8.36;65.95
41306;BME280;27051;50.376;19.152;2023-02-19T10:10:33;97723.20;;;8.32;66.20
41306;BME280;27051;50.376;19.152;2023-02-19T10:13:14;97724.80;;;8.24;66.19
41306;BME280;27051;50.376;19.152;2023-02-19T10:15:49;97726.09;;;8.23;66.28
41306;BME280;27051;50.376;19.152;2023-02-19T10:18:25;97731.96;;;8.21;66.06
41306;BME280;27051;50.376;19.152;2023-02-19T10:20:54;97735.22;;;8.18;66.07
41306;BME280;27051;50.376;19.152;2023-02-19T10:23:23;97733.06;;;8.22;66.03
41306;BME280;27051;50.376;19.152;2023-02-19T10:25:57;97733.06;;;8.24;65.96
41306;BME280;27051;50.376;19.152;2023-02-19T10:28:33;97735.81;;;8.26;65.91
41306;BME280;27051;50.376;19.152;2023-02-19T10:31:04;97735.96;;;8.26;65.90
41306;BME280;27051;50.376;19.152;2023-02-19T10:33:32;97739.81;;;8.29;65.95
41306;BME280;27051;50.376;19.152;2023-02-19T10:36:03;97741.83;;;8.43;65.56
41306;BME280;27051;50.376;19.152;2023-02-19T10:38:37;97746.76;;;8.44;65.49
41306;BME280;27051;50.376;19.152;2023-02-19T10:41:07;97748.96;;;8.44;65.18
41306;BME280;27051;50.376;19.152;2023-02-19T10:43:38;97749.42;;;8.39;65.15
41306;BME280;27051;50.376;19.152;2023-02-19T10:46:16;97750.96;;;8.39;65.19
41306;BME280;27051;50.376;19.152;2023-02-19T10:48:56;97750.77;;;8.36;65.03
41306;BME280;27051;50.376;19.152;2023-02-19T10:51:36;97750.75;;;8.34;65.13
41306;BME280;27051;50.376;19.152;2023-02-19T10:54:25;97756.03;;;8.30;65.05
41306;BME280;27051;50.376;19.152;2023-02-19T11:00:01;97765.69;;;8.23;65.28
41306;BME280;27051;50.376;19.152;2023-02-19T11:02:29;97768.23;;;8.39;65.04
41306;BME280;27051;50.376;19.152;2023-02-19T11:07:35;97785.95;;;8.36;64.46
41306;BME280;27051;50.376;19.152;2023-02-19T11:10:03;97788.16;;;8.29;64.34
41306;BME280;27051;50.376;19.152;2023-02-19T11:12:32;97784.20;;;8.25;64.40
41306;BME280;27051;50.376;19.152;2023-02-19T11:15:12;97786.10;;;8.30;64.70
41306;BME280;27051;50.376;19.152;2023-02-19T11:17:44;97792.83;;;8.36;65.16
41306;BME280;27051;50.376;19.152;2023-02-19T11:20:19;97791.98;;;8.36;64.91
41306;BME280;27051;50.376;19.152;2023-02-19T11:22:45;97795.80;;;8.40;64.89
41306;BME280;27051;50.376;19.152;2023-02-19T11:28:36;97801.58;;;8.47;64.51
41306;BME280;27051;50.376;19.152;2023-02-19T11:30:43;97803.78;;;8.54;64.29
41306;BME280;27051;50.376;19.152;2023-02-19T11:35:42;97806.38;;;8.59;63.71
41306;BME280;27051;50.376;19.152;2023-02-19T11:38:11;97811.88;;;8.60;63.91
41306;BME280;27051;50.376;19.152;2023-02-19T11:41:09;97811.94;;;8.60;63.81
41306;BME280;27051;50.376;19.152;2023-02-19T11:44:05;97815.41;;;8.59;63.90
41306;BME280;27051;50.376;19.152;2023-02-19T11:52:34;97826.76;;;8.59;63.92
41306;BME280;27051;50.376;19.152;2023-02-19T11:55:22;97833.80;;;8.60;63.92
41306;BME280;27051;50.376;19.152;2023-02-19T12:00:29;97849.71;;;8.55;63.04
41306;BME280;27051;50.376;19.152;2023-02-19T12:07:05;97856.44;;;8.31;63.10
41306;BME280;27051;50.376;19.152;2023-02-19T12:09:17;97859.98;;;8.16;62.97
41306;BME280;27051;50.376;19.152;2023-02-19T12:19:46;97877.35;;;8.05;63.25
41306;BME280;27051;50.376;19.152;2023-02-19T12:22:31;97883.48;;;8.10;63.29
41306;BME280;27051;50.376;19.152;2023-02-19T12:30:02;97891.85;;;8.17;62.61
41306;BME280;27051;50.376;19.152;2023-02-19T12:35:40;97889.17;;;8.30;62.70
41306;BME280;27051;50.376;19.152;2023-02-19T12:43:31;97885.81;;;8.69;62.28
41306;BME280;27051;50.376;19.152;2023-02-19T12:46:02;97887.73;;;8.98;62.06
41306;BME280;27051;50.376;19.152;2023-02-19T12:51:25;97898.19;;;9.10;61.36
41306;BME280;27051;50.376;19.152;2023-02-19T12:54:00;97896.16;;;9.02;61.72
41306;BME280;27051;50.376;19.152;2023-02-19T12:56:35;97902.64;;;8.94;61.98
41306;BME280;27051;50.376;19.152;2023-02-19T12:59:10;97903.11;;;8.88;61.81
41306;BME280;27051;50.376;19.152;2023-02-19T13:01:47;97913.31;;;8.68;61.59
41306;BME280;27051;50.376;19.152;2023-02-19T13:04:18;97917.39;;;8.44;61.56
41306;BME280;27051;50.376;19.152;2023-02-19T13:06:55;97920.96;;;8.29;61.77
41306;BME280;27051;50.376;19.152;2023-02-19T13:11:55;97933.10;;;7.89;61.93
41306;BME280;27051;50.376;19.152;2023-02-19T13:14:28;97938.57;;;7.74;62.27
41306;BME280;27051;50.376;19.152;2023-02-19T13:20:02;97941.41;;;7.62;62.63
41306;BME280;27051;50.376;19.152;2023-02-19T13:22:41;97944.27;;;7.72;62.85
41306;BME280;27051;50.376;19.152;2023-02-19T13:25:11;97953.41;;;8.09;62.97
41306;BME280;27051;50.376;19.152;2023-02-19T13:28:01;97954.69;;;8.35;62.28
41306;BME280;27051;50.376;19.152;2023-02-19T13:33:32;97959.73;;;8.41;61.11
41306;BME280;27051;50.376;19.152;2023-02-19T13:36:09;97963.10;;;8.69;61.09
41306;BME280;27051;50.376;19.152;2023-02-19T13:38:39;97963.07;;;9.20;60.74
41306;BME280;27051;50.376;19.152;2023-02-19T13:41:18;97966.39;;;9.18;60.69
41306;BME280;27051;50.376;19.152;2023-02-19T13:43:45;97970.33;;;9.07;60.14
41306;BME280;27051;50.376;19.152;2023-02-19T13:46:18;97975.21;;;8.82;59.93
41306;BME280;27051;50.376;19.152;2023-02-19T13:48:44;97975.79;;;8.60;59.64
41306;BME280;27051;50.376;19.152;2023-02-19T13:58:56;97990.91;;;8.94;59.02
41306;BME280;27051;50.376;19.152;2023-02-19T14:30:26;98047.02;;;7.77;58.97
41306;BME280;27051;50.376;19.152;2023-02-19T14:32:53;98053.18;;;7.71;59.32
41306;BME280;27051;50.376;19.152;2023-02-19T14:35:24;98053.61;;;7.67;59.14
41306;BME280;27051;50.376;19.152;2023-02-19T14:37:55;98058.27;;;7.58;59.16
41306;BME280;27051;50.376;19.152;2023-02-19T14:40:27;98064.55;;;7.51;59.24
41306;BME280;27051;50.376;19.152;2023-02-19T14:42:56;98065.27;;;7.51;59.39
41306;BME280;27051;50.376;19.152;2023-02-19T14:45:27;98063.27;;;7.47;59.07
41306;BME280;27051;50.376;19.152;2023-02-19T14:47:55;98063.14;;;7.33;58.63
41306;BME280;27051;50.376;19.152;2023-02-19T14:50:29;98071.19;;;7.18;58.42
41306;BME280;27051;50.376;19.152;2023-02-19T14:52:59;98073.66;;;7.07;58.63
41306;BME280;27051;50.376;19.152;2023-02-19T14:55:38;98073.46;;;6.97;58.71
41306;BME280;27051;50.376;19.152;2023-02-19T14:58:13;98077.09;;;6.86;58.75
41306;BME280;27051;50.376;19.152;2023-02-19T15:00:41;98087.36;;;6.77;58.92
41306;BME280;27051;50.376;19.152;2023-02-19T15:03:30;98090.06;;;6.75;59.05
41306;BME280;27051;50.376;19.152;2023-02-19T15:06:11;98083.66;;;6.75;58.84
41306;BME280;27051;50.376;19.152;2023-02-19T15:08:43;98092.64;;;6.77;59.10
41306;BME280;27051;50.376;19.152;2023-02-19T15:11:14;98094.99;;;6.87;59.16
41306;BME280;27051;50.376;19.152;2023-02-19T15:13:42;98095.81;;;6.90;59.31
41306;BME280;27051;50.376;19.152;2023-02-19T15:16:08;98100.76;;;6.92;59.13
41306;BME280;27051;50.376;19.152;2023-02-19T15:18:35;98106.15;;;6.92;59.23
41306;BME280;27051;50.376;19.152;2023-02-19T15:21:03;98107.30;;;6.97;59.30
41306;BME280;27051;50.376;19.152;2023-02-19T15:23:31;98117.11;;;7.00;59.19
41306;BME280;27051;50.376;19.152;2023-02-19T15:25:59;98122.35;;;6.96;58.74
41306;BME280;27051;50.376;19.152;2023-02-19T15:28:29;98122.84;;;6.90;58.89